Terminal Aerodrome Forecast
Issued by NWS

Home | Current Version | Previous Version | Text Only | Print | Product List | Glossary On
Versions: 1 2 3 4 5 6 7 8 9 10 11 12 13 14 15 16 17 18 19 20 21
000
FTUS43 KLSX 142100 AAA
TAFSUS
TAF AMD
KSUS 142107Z 1421/1518 13006KT P6SM SCT040
     FM150600 15008KT P6SM OVC015
     FM151100 15011KT 4SM -RA OVC009
     FM151500 15013KT P6SM BKN015=

USA.gov is the U.S. government's official web portal to all federal, state and local government web resources and services.